KMMH

Mammoth Yosemite Airport

Mammoth Lakes, California, USA
METAR KMMH 171355Z AUTO 00000KT 10SM SCT036 BKN043 OVC065 M01/M02 A3007 RMK AO2 T10061024
Observed Flight Rules
Dec-17 @ 13:55 UTC (34 minutes ago) Visual Flight Rules
Visibility Clouds
10 miles
  • Scattered at 3,600' AGL
  • Broken at 4,300' AGL
  • Overcast at 6,500' AGL
Temperatures Readings
Current -1°C / 30°F
Dewpoint -2°C / 28°F
Humidity 93%
Altimeter 30.07" Hg
Pressure 1018 hPa
Elevation 2173
METAR KMMH 171355Z AUTO 00000KT 10SM SCT036 BKN043 OVC065 M01/M02 A3007 RMK AO2 T10061024
Observed Flight Rules
Dec-17 @ 13:55 UTC
(34 minutes ago)
VFR
Clouds
  • Scattered at 3,600' AGL
  • Broken at 4,300' AGL
  • Overcast at 6,500' AGL
Temperature Dewpoint
-1°C / 30°F -2°C / 28°F
Humidity Altimeter Pressure
93% 30.07" Hg 1018 hPa